Time;durP1;ratioP1;P1;durP2;ratioP2;P2;SDS_P1;SDS_P2;PMS_P1;PMS_P2;Temp;Humidity;BMP_temperature;BMP_pressure;BME280_temperature;BME280_humidity;BME280_pressure;Samples;Min_cycle;Max_cycle;Signal;HPM_P1;HPM_P2
2021/04/08 00:01:33;;;;;;;1.35;0.75;;;11.40;72.60;;;;;;5115827;28;20051;-38
2021/04/08 00:03:59;;;;;;;1.25;0.50;;;11.40;72.60;;;;;;5115445;28;20051;-37
2021/04/08 00:06:25;;;;;;;0.95;0.55;;;11.40;73.30;;;;;;5115213;28;20138;-40
2021/04/08 00:08:51;;;;;;;0.73;0.70;;;11.40;72.60;;;;;;5115441;28;20074;-38
2021/04/08 00:11:16;;;;;;;2.03;1.02;;;11.40;72.60;;;;;;5115619;28;20059;-37
2021/04/08 00:13:42;;;;;;;2.10;0.85;;;11.40;72.60;;;;;;5115368;28;20069;-39
2021/04/08 00:16:08;;;;;;;1.35;0.73;;;11.40;72.60;;;;;;5115042;28;20579;-38
2021/04/08 00:18:34;;;;;;;1.67;0.60;;;11.40;72.70;;;;;;5115750;28;20122;-38
2021/04/08 00:21:00;;;;;;;1.90;0.60;;;11.40;72.70;;;;;;5115622;28;20479;-38
2021/04/08 00:23:26;;;;;;;0.70;0.50;;;11.40;72.60;;;;;;5115020;28;20507;-38
2021/04/08 00:25:52;;;;;;;1.10;0.60;;;11.40;72.70;;;;;;5115019;28;20043;-38
2021/04/08 00:28:18;;;;;;;1.45;0.75;;;11.40;72.70;;;;;;5115363;28;20133;-38
2021/04/08 00:30:46;;;;;;;1.35;0.70;;;11.30;72.70;;;;;;5115102;28;20055;-38
2021/04/08 00:33:13;;;;;;;1.27;0.60;;;11.40;72.70;;;;;;5115431;28;20046;-40
2021/04/08 00:35:39;;;;;;;0.50;0.50;;;11.40;72.70;;;;;;5115215;28;20138;-36
2021/04/08 00:38:05;;;;;;;1.38;0.70;;;11.30;72.70;;;;;;5114497;28;20093;-38
2021/04/08 00:40:31;;;;;;;2.50;0.70;;;11.40;72.70;;;;;;5114853;28;20047;-40
2021/04/08 00:42:57;;;;;;;0.73;0.63;;;11.40;73.40;;;;;;5113869;28;20454;-39
2021/04/08 00:45:23;;;;;;;1.10;0.40;;;11.30;72.70;;;;;;5114677;28;20051;-39
2021/04/08 00:47:48;;;;;;;1.98;0.60;;;11.30;72.70;;;;;;5114786;28;20052;-38
2021/04/08 00:50:16;;;;;;;0.95;0.68;;;11.40;72.70;;;;;;5115047;28;20100;-39
2021/04/08 00:52:45;;;;;;;0.40;0.40;;;11.30;72.70;;;;;;5114482;28;20067;-39
2021/04/08 00:55:11;;;;;;;0.68;0.40;;;11.30;72.70;;;;;;5115080;28;20044;-38
2021/04/08 00:57:38;;;;;;;0.98;0.60;;;11.30;72.80;;;;;;5114272;28;20043;-39
2021/04/08 01:00:06;;;;;;;0.80;0.73;;;11.40;72.80;;;;;;5114593;28;20054;-38
2021/04/08 01:02:32;;;;;;;0.85;0.60;;;11.30;72.70;;;;;;5114680;28;20047;-38
2021/04/08 01:04:59;;;;;;;0.90;0.50;;;11.40;72.80;;;;;;5114584;28;20043;-43
2021/04/08 01:07:25;;;;;;;1.10;0.50;;;11.30;72.70;;;;;;5114828;28;20122;-42
2021/04/08 01:09:50;;;;;;;1.90;0.82;;;11.30;72.80;;;;;;5113902;28;20151;-44
2021/04/08 01:12:16;;;;;;;0.73;0.70;;;11.30;72.80;;;;;;5114063;28;20039;-44
2021/04/08 01:14:42;;;;;;;1.60;0.50;;;11.30;72.80;;;;;;5113952;28;20043;-41
2021/04/08 01:17:20;;;;;;;0.82;0.60;;;11.30;72.80;;;;;;5114522;28;20050;-41
2021/04/08 01:19:54;;;;;;;0.88;0.57;;;11.30;72.80;;;;;;5114558;28;20039;-44
2021/04/08 01:22:49;;;;;;;1.13;0.63;;;11.30;72.80;;;;;;5114098;28;20065;-38
2021/04/08 01:25:39;;;;;;;0.80;0.50;;;11.30;72.80;;;;;;5030785;28;20068;-37
2021/04/08 01:28:13;;;;;;;0.70;0.50;;;11.30;72.80;;;;;;5031655;28;20049;-39
2021/04/08 01:30:44;;;;;;;2.00;0.68;;;11.30;72.80;;;;;;5031500;28;20057;-40
2021/04/08 01:33:23;;;;;;;0.95;0.60;;;11.30;72.80;;;;;;5032982;28;20132;-38
2021/04/08 01:35:50;;;;;;;0.40;0.40;;;11.30;72.80;;;;;;5051169;28;20044;-39
2021/04/08 01:38:22;;;;;;;0.57;0.55;;;11.30;72.80;;;;;;5051438;28;20056;-39
2021/04/08 01:40:48;;;;;;;0.75;0.40;;;11.30;72.80;;;;;;5050736;28;20405;-39
2021/04/08 01:43:20;;;;;;;0.80;0.70;;;11.30;72.80;;;;;;5051170;28;20044;-40
2021/04/08 01:45:50;;;;;;;1.13;0.47;;;11.30;72.80;;;;;;5050604;28;20049;-41
2021/04/08 01:48:16;;;;;;;0.82;0.55;;;11.30;72.80;;;;;;5050552;28;20048;-40
2021/04/08 01:50:44;;;;;;;1.27;0.60;;;11.30;72.80;;;;;;5051166;28;20048;-41
2021/04/08 01:53:14;;;;;;;0.57;0.47;;;11.30;72.80;;;;;;5050726;28;20057;-39
2021/04/08 01:55:42;;;;;;;2.30;0.52;;;11.30;72.80;;;;;;5049780;28;20056;-39
2021/04/08 01:58:08;;;;;;;0.88;0.70;;;11.30;72.80;;;;;;5051051;28;20045;-38
2021/04/08 02:00:35;;;;;;;1.15;0.65;;;11.30;72.80;;;;;;5055176;28;20563;-39
2021/04/08 02:03:02;;;;;;;1.70;0.57;;;11.30;72.80;;;;;;5113540;28;20040;-39
2021/04/08 02:05:29;;;;;;;0.80;0.47;;;11.30;72.90;;;;;;5113108;28;20054;-38
2021/04/08 02:07:56;;;;;;;0.73;0.63;;;11.30;72.80;;;;;;5113617;28;20399;-39
2021/04/08 02:10:24;;;;;;;1.08;0.50;;;11.30;72.90;;;;;;5113208;28;20051;-38
2021/04/08 02:12:50;;;;;;;1.52;0.60;;;11.30;72.80;;;;;;5113518;28;20067;-41
2021/04/08 02:15:21;;;;;;;1.20;0.60;;;11.30;72.80;;;;;;5113108;28;20036;-39
2021/04/08 02:17:52;;;;;;;0.50;0.50;;;11.30;72.90;;;;;;5113145;28;20093;-40
2021/04/08 02:20:21;;;;;;;2.17;0.70;;;11.30;72.80;;;;;;5113320;28;20593;-39
2021/04/08 02:22:51;;;;;;;0.70;0.45;;;11.30;72.90;;;;;;5113451;28;20052;-39
2021/04/08 02:25:19;;;;;;;1.17;0.47;;;11.30;72.80;;;;;;5113323;28;20069;-38
2021/04/08 02:27:46;;;;;;;0.40;0.40;;;11.30;72.90;;;;;;5112533;28;20043;-38
2021/04/08 02:30:15;;;;;;;1.40;0.57;;;11.30;72.80;;;;;;5113143;28;20092;-37
2021/04/08 02:32:41;;;;;;;0.73;0.55;;;11.30;72.90;;;;;;5113498;28;20052;-41
2021/04/08 02:35:16;;;;;;;0.85;0.55;;;11.30;72.90;;;;;;5113334;28;20047;-39
2021/04/08 02:37:44;;;;;;;1.08;0.70;;;11.30;72.90;;;;;;5113019;28;20119;-39
2021/04/08 02:40:13;;;;;;;0.30;0.30;;;11.20;72.80;;;;;;5113324;28;20043;-39
2021/04/08 02:42:39;;;;;;;1.38;0.52;;;11.30;72.90;;;;;;5112825;28;20058;-38
2021/04/08 02:45:07;;;;;;;0.38;0.35;;;11.30;73.20;;;;;;5113102;28;20122;-39
2021/04/08 02:47:33;;;;;;;0.77;0.57;;;11.30;72.90;;;;;;5113214;28;20121;-37
2021/04/08 02:49:59;;;;;;;1.05;0.52;;;11.30;72.90;;;;;;5112725;28;20164;-38
2021/04/08 02:52:26;;;;;;;0.30;0.30;;;11.30;72.80;;;;;;5112956;28;20543;-38
2021/04/08 02:55:04;;;;;;;1.52;0.55;;;11.30;72.90;;;;;;5113139;28;20411;-39
2021/04/08 02:57:55;;;;;;;0.88;0.50;;;11.30;72.90;;;;;;5112211;28;20112;-38
2021/04/08 03:00:25;;;;;;;0.40;0.40;;;11.30;72.90;;;;;;5113223;28;20149;-38
2021/04/08 03:02:54;;;;;;;1.73;0.80;;;11.20;72.80;;;;;;5113201;28;20044;-38
2021/04/08 03:05:21;;;;;;;0.55;0.47;;;11.30;72.90;;;;;;5112958;28;20104;-39
2021/04/08 03:07:50;;;;;;;2.03;0.88;;;11.30;72.90;;;;;;5115888;28;20040;-39
2021/04/08 03:10:17;;;;;;;0.85;0.50;;;11.20;72.80;;;;;;5116781;28;20044;-41
2021/04/08 03:12:48;;;;;;;1.33;0.40;;;11.30;72.90;;;;;;5116383;28;20499;-38
2021/04/08 03:15:23;;;;;;;1.65;0.50;;;11.20;72.80;;;;;;5116794;28;20120;-39
2021/04/08 03:17:52;;;;;;;3.20;0.52;;;11.30;72.90;;;;;;5116502;28;20048;-38
2021/04/08 03:20:19;;;;;;;0.80;0.45;;;11.30;72.90;;;;;;5116372;28;20118;-38
2021/04/08 03:22:45;;;;;;;0.40;0.30;;;11.20;72.80;;;;;;5116740;28;20044;-38
2021/04/08 03:25:12;;;;;;;0.47;0.43;;;11.20;72.80;;;;;;5116796;28;20054;-39
2021/04/08 03:27:40;;;;;;;0.75;0.63;;;11.20;72.90;;;;;;5116464;27;20078;-38
2021/04/08 03:30:13;;;;;;;1.42;0.52;;;11.20;72.80;;;;;;5115958;28;20131;-39
2021/04/08 03:32:39;;;;;;;1.38;0.60;;;11.20;72.80;;;;;;5116368;28;20208;-38
2021/04/08 03:35:07;;;;;;;0.80;0.47;;;11.20;72.90;;;;;;5116503;28;20131;-39
2021/04/08 03:37:33;;;;;;;0.52;0.47;;;11.20;72.90;;;;;;5116238;28;20079;-40
2021/04/08 03:40:00;;;;;;;0.70;0.47;;;11.20;72.90;;;;;;5116209;28;20118;-37
2021/04/08 03:42:26;;;;;;;1.65;0.88;;;11.20;72.90;;;;;;5116237;28;20051;-38
2021/04/08 03:44:52;;;;;;;0.40;0.40;;;11.20;72.90;;;;;;5115958;28;20048;-39
2021/04/08 03:47:18;;;;;;;1.35;0.43;;;11.20;72.90;;;;;;5115943;28;20051;-39
2021/04/08 03:49:48;;;;;;;1.85;0.55;;;11.20;72.90;;;;;;5115866;28;20051;-38
2021/04/08 03:52:14;;;;;;;0.68;0.50;;;11.20;72.90;;;;;;5115636;28;20408;-39
2021/04/08 03:54:42;;;;;;;1.55;0.68;;;11.20;72.90;;;;;;5115903;28;20519;-39
2021/04/08 03:57:16;;;;;;;0.40;0.40;;;11.20;72.90;;;;;;5115882;27;20559;-41
2021/04/08 03:59:45;;;;;;;1.00;0.70;;;11.20;72.90;;;;;;5113580;28;20048;-37
2021/04/08 04:02:17;;;;;;;0.60;0.60;;;11.20;72.90;;;;;;5115822;28;20476;-39
2021/04/08 04:04:44;;;;;;;0.57;0.50;;;11.20;72.90;;;;;;5115770;28;20047;-40
2021/04/08 04:07:10;;;;;;;0.63;0.40;;;11.20;72.90;;;;;;5115975;28;20043;-39
2021/04/08 04:09:37;;;;;;;1.20;0.50;;;11.30;72.90;;;;;;5115852;28;20484;-41
2021/04/08 04:12:03;;;;;;;1.33;0.45;;;11.20;72.90;;;;;;5115434;28;20048;-37
2021/04/08 04:14:30;;;;;;;0.40;0.40;;;11.20;72.90;;;;;;5115478;28;20047;-39
2021/04/08 04:16:57;;;;;;;0.75;0.40;;;11.20;72.90;;;;;;5114088;28;20055;-39
2021/04/08 04:19:26;;;;;;;0.50;0.40;;;11.20;72.90;;;;;;5115442;28;20506;-39
2021/04/08 04:21:53;;;;;;;0.52;0.38;;;11.20;72.90;;;;;;5115245;28;20055;-39
2021/04/08 04:24:18;;;;;;;0.68;0.50;;;11.20;72.90;;;;;;5115520;28;20151;-39
2021/04/08 04:26:44;;;;;;;0.55;0.40;;;11.20;72.90;;;;;;5115435;28;20523;-39
2021/04/08 04:29:11;;;;;;;0.65;0.40;;;11.20;72.90;;;;;;5115500;28;20122;-42
2021/04/08 04:31:38;;;;;;;0.40;0.40;;;11.20;72.90;;;;;;5114814;27;20058;-37
2021/04/08 04:34:05;;;;;;;1.02;0.50;;;11.20;72.90;;;;;;5115191;28;20541;-40
2021/04/08 04:36:32;;;;;;;0.30;0.30;;;11.20;72.90;;;;;;5115263;28;20060;-39
2021/04/08 04:38:58;;;;;;;0.50;0.43;;;11.20;72.90;;;;;;5115061;28;20491;-38
2021/04/08 04:41:23;;;;;;;0.85;0.75;;;11.20;72.90;;;;;;5115039;28;20048;-39
2021/04/08 04:43:49;;;;;;;0.30;0.30;;;11.10;72.90;;;;;;5114736;28;20047;-39
2021/04/08 04:46:15;;;;;;;1.40;0.65;;;11.10;72.90;;;;;;5114132;28;20063;-40
2021/04/08 04:48:41;;;;;;;0.73;0.52;;;11.20;72.90;;;;;;5114121;28;20123;-38
2021/04/08 04:51:06;;;;;;;0.55;0.30;;;11.10;72.80;;;;;;5113967;28;20078;-37
2021/04/08 04:53:32;;;;;;;0.80;0.30;;;11.20;72.90;;;;;;5113538;28;20055;-38
2021/04/08 04:56:00;;;;;;;0.60;0.50;;;11.10;72.80;;;;;;5114331;28;20547;-41
2021/04/08 04:58:25;;;;;;;0.35;0.30;;;11.20;72.90;;;;;;5114762;28;20124;-43
2021/04/08 05:00:51;;;;;;;0.30;0.30;;;11.10;72.80;;;;;;5114793;28;20067;-39
2021/04/08 05:03:17;;;;;;;0.90;0.30;;;11.10;72.90;;;;;;5114297;28;20047;-39
2021/04/08 05:05:43;;;;;;;0.85;0.40;;;11.10;72.80;;;;;;5114257;28;20060;-41
2021/04/08 05:08:08;;;;;;;1.05;0.73;;;11.20;72.90;;;;;;5114837;28;20044;-42
2021/04/08 05:10:34;;;;;;;1.63;0.40;;;11.20;72.90;;;;;;5114513;28;20124;-41
2021/04/08 05:13:00;;;;;;;1.58;0.57;;;11.20;72.90;;;;;;5112674;28;20153;-40
2021/04/08 05:15:26;;;;;;;0.98;0.50;;;11.20;72.90;;;;;;5114060;28;20051;-40
2021/04/08 05:17:52;;;;;;;0.75;0.45;;;11.10;72.80;;;;;;5113997;28;20071;-43
2021/04/08 05:20:18;;;;;;;0.65;0.40;;;11.10;72.80;;;;;;5114234;27;20048;-43
2021/04/08 05:22:44;;;;;;;0.57;0.50;;;11.10;72.80;;;;;;5114270;28;20507;-41
2021/04/08 05:25:09;;;;;;;1.50;0.60;;;11.10;72.80;;;;;;5113977;28;20054;-40
2021/04/08 05:27:35;;;;;;;2.20;0.40;;;11.10;72.80;;;;;;5114222;28;20096;-42
2021/04/08 05:30:01;;;;;;;0.77;0.40;;;11.10;72.80;;;;;;5113639;28;20043;-40
2021/04/08 05:32:27;;;;;;;0.95;0.60;;;11.10;73.50;;;;;;5113980;28;20067;-40
2021/04/08 05:34:53;;;;;;;0.90;0.85;;;11.00;72.70;;;;;;5114080;28;20048;-42
2021/04/08 05:37:19;;;;;;;0.75;0.30;;;11.20;72.90;;;;;;5113508;28;20454;-40
2021/04/08 05:39:45;;;;;;;0.52;0.30;;;11.20;72.90;;;;;;5113932;28;20400;-38
2021/04/08 05:42:11;;;;;;;1.23;0.38;;;11.20;72.90;;;;;;5114113;28;20054;-39
2021/04/08 05:44:36;;;;;;;0.52;0.30;;;11.10;72.80;;;;;;5114006;28;20051;-40
2021/04/08 05:47:02;;;;;;;0.38;0.30;;;11.20;72.90;;;;;;5113517;28;20055;-39
2021/04/08 05:49:28;;;;;;;1.00;0.52;;;11.10;72.80;;;;;;5113475;28;20051;-38
2021/04/08 05:51:54;;;;;;;0.93;0.40;;;11.20;72.90;;;;;;5113555;28;20126;-39
2021/04/08 05:54:19;;;;;;;2.03;0.50;;;11.20;72.80;;;;;;5113573;28;20051;-38
2021/04/08 05:56:45;;;;;;;1.60;0.40;;;11.10;72.80;;;;;;5113450;28;20043;-38
2021/04/08 05:59:11;;;;;;;0.50;0.30;;;11.10;72.80;;;;;;5113354;28;20039;-40
2021/04/08 06:01:36;;;;;;;0.40;0.40;;;11.10;72.80;;;;;;5113484;28;20067;-43
2021/04/08 06:04:06;;;;;;;0.47;0.40;;;11.10;72.80;;;;;;5113230;28;20052;-40
2021/04/08 06:06:31;;;;;;;0.68;0.55;;;11.10;72.70;;;;;;5113332;28;20444;-38
2021/04/08 06:08:57;;;;;;;1.55;0.85;;;11.10;72.80;;;;;;5113173;28;20043;-38
2021/04/08 06:11:23;;;;;;;1.45;0.40;;;11.10;72.70;;;;;;5113785;28;20071;-39
2021/04/08 06:13:50;;;;;;;0.70;0.68;;;11.10;72.70;;;;;;5113592;28;20529;-39
2021/04/08 06:16:15;;;;;;;0.73;0.43;;;11.10;72.80;;;;;;5113628;28;20052;-41
2021/04/08 06:18:41;;;;;;;1.10;0.30;;;11.10;72.80;;;;;;5112904;28;20411;-38
2021/04/08 06:21:07;;;;;;;0.55;0.40;;;11.10;72.70;;;;;;5112929;28;20059;-40
2021/04/08 06:23:33;;;;;;;0.90;0.50;;;11.10;72.70;;;;;;5113322;28;20074;-43
2021/04/08 06:25:59;;;;;;;1.00;0.50;;;11.10;72.70;;;;;;5113572;28;20060;-40
2021/04/08 06:28:25;;;;;;;0.90;0.50;;;11.10;72.70;;;;;;5113492;28;20075;-37
2021/04/08 06:30:50;;;;;;;1.38;0.43;;;11.10;72.70;;;;;;5112923;28;20066;-38
2021/04/08 06:33:16;;;;;;;0.65;0.30;;;11.20;72.80;;;;;;5113440;28;20441;-38
2021/04/08 06:35:42;;;;;;;1.08;0.55;;;11.10;72.70;;;;;;5112857;28;20043;-38
2021/04/08 06:38:08;;;;;;;0.38;0.32;;;11.10;72.70;;;;;;5111125;28;20465;-38
2021/04/08 06:40:34;;;;;;;0.85;0.50;;;11.10;72.70;;;;;;5113414;28;20047;-38
2021/04/08 06:43:02;;;;;;;0.40;0.40;;;11.10;72.70;;;;;;5117246;28;20051;-37
2021/04/08 06:45:30;;;;;;;1.17;0.50;;;11.10;72.70;;;;;;5116964;28;20414;-38
2021/04/08 06:48:07;;;;;;;0.75;0.40;;;11.10;72.70;;;;;;5116785;28;20044;-38
2021/04/08 06:50:38;;;;;;;0.60;0.40;;;11.10;72.70;;;;;;5116964;28;20074;-39
2021/04/08 06:53:06;;;;;;;0.80;0.40;;;11.10;72.70;;;;;;5116689;27;20059;-37
2021/04/08 06:55:33;;;;;;;0.82;0.52;;;11.10;72.70;;;;;;5116918;28;20050;-42
2021/04/08 06:58:00;;;;;;;0.52;0.40;;;11.10;72.70;;;;;;5116507;28;20044;-38
2021/04/08 07:00:27;;;;;;;0.57;0.35;;;11.20;72.80;;;;;;5116697;28;20043;-36
2021/04/08 07:02:53;;;;;;;0.45;0.40;;;11.10;72.70;;;;;;5096624;28;20048;-36
2021/04/08 07:05:18;;;;;;;1.02;0.40;;;11.10;72.70;;;;;;5115933;28;20039;-42
2021/04/08 07:07:44;;;;;;;0.95;0.50;;;11.10;72.70;;;;;;5116744;28;20051;-36
2021/04/08 07:10:10;;;;;;;0.45;0.38;;;11.10;72.70;;;;;;5115926;28;20162;-39
2021/04/08 07:12:37;;;;;;;1.05;0.60;;;11.10;72.70;;;;;;5116199;28;20576;-40
2021/04/08 07:15:05;;;;;;;0.57;0.40;;;11.10;72.70;;;;;;5116398;28;20490;-39
2021/04/08 07:17:31;;;;;;;0.47;0.35;;;11.10;72.70;;;;;;5116592;28;20119;-42
2021/04/08 07:19:57;;;;;;;0.45;0.45;;;11.10;72.70;;;;;;5116284;28;20075;-39
2021/04/08 07:22:24;;;;;;;1.02;0.47;;;11.10;72.70;;;;;;5115753;28;20047;-38
2021/04/08 07:24:51;;;;;;;0.35;0.35;;;11.10;72.70;;;;;;5116412;28;20043;-39
2021/04/08 07:27:22;;;;;;;0.50;0.30;;;11.10;72.70;;;;;;5116603;28;20040;-41
2021/04/08 07:30:00;;;;;;;1.35;0.80;;;11.10;72.70;;;;;;5115763;28;20484;-38
2021/04/08 07:32:31;;;;;;;0.40;0.40;;;11.10;72.70;;;;;;5116112;28;20073;-39
2021/04/08 07:35:01;;;;;;;1.65;0.47;;;11.10;72.70;;;;;;5115928;28;20043;-38
2021/04/08 07:37:32;;;;;;;1.02;0.57;;;11.10;72.70;;;;;;5116357;28;20048;-40
2021/04/08 07:40:14;;;;;;;0.55;0.52;;;11.10;72.70;;;;;;5115897;28;20039;-43
2021/04/08 07:42:40;;;;;;;0.55;0.50;;;11.10;72.70;;;;;;5115749;28;20402;-40
2021/04/08 07:45:08;;;;;;;1.45;0.47;;;11.10;72.70;;;;;;5115837;28;20050;-40
2021/04/08 07:47:40;;;;;;;0.88;0.47;;;11.10;72.70;;;;;;5116056;28;20130;-41
2021/04/08 07:50:05;;;;;;;1.17;0.50;;;11.10;72.70;;;;;;5115719;28;20044;-39
2021/04/08 07:52:39;;;;;;;0.40;0.40;;;11.10;72.70;;;;;;5114800;28;20097;-40
2021/04/08 07:55:34;;;;;;;0.95;0.47;;;11.10;72.70;;;;;;5115799;28;20086;-40
2021/04/08 07:58:08;;;;;;;0.60;0.52;;;11.10;72.70;;;;;;5110723;28;20457;-38
2021/04/08 08:00:39;;;;;;;0.45;0.40;;;11.10;72.70;;;;;;5115651;28;20145;-41
2021/04/08 08:03:25;;;;;;;0.30;0.30;;;11.10;72.70;;;;;;5115296;28;20047;-40
2021/04/08 08:05:57;;;;;;;0.47;0.38;;;11.10;72.70;;;;;;5115390;28;20134;-39
2021/04/08 08:08:25;;;;;;;0.63;0.30;;;11.10;72.70;;;;;;5115128;28;20046;-43
2021/04/08 08:10:56;;;;;;;0.88;0.40;;;11.10;72.70;;;;;;5114554;27;20043;-43
2021/04/08 08:13:25;;;;;;;0.73;0.50;;;11.10;72.70;;;;;;5112248;28;20048;-43
2021/04/08 08:15:52;;;;;;;0.65;0.45;;;11.10;72.60;;;;;;5115305;28;20063;-42
2021/04/08 08:18:29;;;;;;;0.70;0.60;;;11.10;72.60;;;;;;5115041;28;21420;-43
2021/04/08 08:21:01;;;;;;;0.50;0.47;;;11.10;72.60;;;;;;5114059;28;20043;-42
2021/04/08 08:23:43;;;;;;;0.63;0.57;;;11.10;72.60;;;;;;5113146;28;20055;-42
2021/04/08 08:26:24;;;;;;;0.88;0.60;;;11.10;72.60;;;;;;5113001;28;20043;-47
2021/04/08 08:28:50;;;;;;;0.65;0.43;;;11.10;72.70;;;;;;5110198;28;20048;-37
2021/04/08 08:31:36;;;;;;;1.02;0.50;;;11.10;72.60;;;;;;5109367;28;20048;-44
2021/04/08 08:34:07;;;;;;;0.88;0.70;;;11.10;72.60;;;;;;5114353;28;20058;-41
2021/04/08 08:36:34;;;;;;;1.05;0.50;;;11.10;72.60;;;;;;5112646;28;20056;-42
2021/04/08 08:39:01;;;;;;;0.75;0.50;;;11.10;72.60;;;;;;5113177;28;20058;-38
2021/04/08 08:41:28;;;;;;;0.60;0.50;;;11.10;72.60;;;;;;5113432;28;20054;-38
2021/04/08 08:43:56;;;;;;;0.70;0.60;;;11.10;72.60;;;;;;5113575;28;20040;-37
2021/04/08 08:46:24;;;;;;;0.60;0.50;;;11.10;72.60;;;;;;5113669;28;20051;-39
2021/04/08 08:48:50;;;;;;;2.10;0.60;;;11.10;72.60;;;;;;5114743;28;20039;-42
2021/04/08 08:51:16;;;;;;;2.30;0.40;;;11.10;72.60;;;;;;5111694;28;20084;-45
2021/04/08 08:53:42;;;;;;;0.52;0.47;;;11.10;72.60;;;;;;5114199;28;20059;-43
2021/04/08 08:56:08;;;;;;;1.27;0.70;;;11.10;72.60;;;;;;5113812;28;20044;-40
2021/04/08 08:58:34;;;;;;;0.88;0.47;;;11.10;72.60;;;;;;5114711;28;20044;-45
2021/04/08 09:01:00;;;;;;;0.70;0.52;;;11.20;72.70;;;;;;5114709;28;20101;-39
2021/04/08 09:03:27;;;;;;;1.00;0.60;;;11.20;72.70;;;;;;5114327;28;20051;-43
2021/04/08 09:05:54;;;;;;;1.58;0.60;;;11.10;72.60;;;;;;5114020;28;20051;-43
2021/04/08 09:08:26;;;;;;;0.85;0.45;;;11.10;72.60;;;;;;5114650;28;20052;-42
2021/04/08 09:10:53;;;;;;;1.48;0.60;;;11.10;72.60;;;;;;5105670;28;20048;-38
2021/04/08 09:13:19;;;;;;;1.77;0.65;;;11.20;72.70;;;;;;5113196;28;20507;-43
2021/04/08 09:15:48;;;;;;;0.47;0.45;;;11.10;72.60;;;;;;5113401;28;20051;-39
2021/04/08 09:18:21;;;;;;;1.15;1.00;;;11.20;72.70;;;;;;5113795;28;20048;-38
2021/04/08 09:20:48;;;;;;;0.50;0.50;;;11.20;72.70;;;;;;5112600;28;20051;-40
2021/04/08 09:23:18;;;;;;;0.75;0.70;;;11.20;72.70;;;;;;5113144;28;20494;-40
2021/04/08 09:25:53;;;;;;;0.75;0.40;;;11.20;72.70;;;;;;5110040;28;20047;-40
2021/04/08 09:28:20;;;;;;;0.35;0.30;;;11.20;72.80;;;;;;5113048;28;20054;-41
2021/04/08 09:31:05;;;;;;;0.40;0.40;;;11.20;72.70;;;;;;5112784;28;20032;-43
2021/04/08 09:33:43;;;;;;;0.88;0.50;;;11.20;72.70;;;;;;5111224;28;20055;-42
2021/04/08 09:36:39;;;;;;;0.82;0.43;;;11.20;72.70;;;;;;5110377;28;20139;-40
2021/04/08 09:39:05;;;;;;;;;;;11.20;72.70;;;;;;5113133;28;20480;-38
2021/04/08 09:41:40;;;;;;;;;;;11.20;72.70;;;;;;5112627;28;19926;-40
2021/04/08 09:44:08;;;;;;;1.05;0.50;;;11.20;72.70;;;;;;5112466;28;19927;-39
2021/04/08 09:46:44;;;;;;;0.85;0.80;;;11.20;72.70;;;;;;5112620;28;20043;-38
2021/04/08 09:49:10;;;;;;;1.27;0.40;;;11.20;72.70;;;;;;5110510;28;20039;-38
2021/04/08 09:51:45;;;;;;;0.90;0.80;;;11.20;72.80;;;;;;5112387;28;20611;-37
2021/04/08 09:54:15;;;;;;;0.75;0.60;;;11.20;73.40;;;;;;5111759;28;20063;-38
2021/04/08 09:57:01;;;;;;;1.13;0.57;;;11.20;72.70;;;;;;5112685;28;20220;-39
2021/04/08 09:59:27;;;;;;;;;;;11.20;72.80;;;;;;5113005;28;20044;-37
2021/04/08 10:01:53;;;;;;;;;;;11.20;72.80;;;;;;5113277;28;19943;-42
2021/04/08 10:04:25;;;;;;;0.55;0.40;;;11.20;72.80;;;;;;5112800;28;20388;-40
2021/04/08 10:07:03;;;;;;;0.73;0.60;;;11.20;72.70;;;;;;5112691;28;20077;-43
2021/04/08 10:09:30;;;;;;;0.68;0.50;;;11.30;72.80;;;;;;5112617;28;20496;-38
2021/04/08 10:11:56;;;;;;;0.60;0.45;;;11.20;72.70;;;;;;5112396;28;20396;-37
2021/04/08 10:14:25;;;;;;;0.73;0.70;;;11.20;72.80;;;;;;5112729;28;20057;-38
2021/04/08 10:17:07;;;;;;;0.50;0.40;;;11.20;72.70;;;;;;5111764;28;20134;-39
2021/04/08 10:19:52;;;;;;;0.43;0.43;;;11.20;72.80;;;;;;5111188;28;20134;-43
2021/04/08 10:22:18;;;;;;;0.77;0.50;;;11.20;72.80;;;;;;5112891;28;20084;-38
2021/04/08 10:25:04;;;;;;;0.47;0.40;;;11.20;72.80;;;;;;5111602;28;20043;-37
2021/04/08 10:27:54;;;;;;;1.15;0.55;;;11.30;72.80;;;;;;5140084;27;20047;-37
2021/04/08 10:30:20;;;;;;;0.80;0.57;;;11.20;72.70;;;;;;5112673;28;20043;-44
2021/04/08 10:32:46;;;;;;;1.17;0.40;;;11.30;72.80;;;;;;5112343;28;20063;-39
2021/04/08 10:35:26;;;;;;;0.65;0.50;;;11.30;72.80;;;;;;5112521;28;20071;-42
2021/04/08 10:38:04;;;;;;;1.15;0.57;;;11.20;72.70;;;;;;5108449;28;20051;-40
2021/04/08 10:40:30;;;;;;;0.75;0.40;;;11.30;72.70;;;;;;5112960;28;20047;-38
2021/04/08 10:43:08;;;;;;;0.68;0.50;;;11.30;72.70;;;;;;5112371;28;20491;-44
2021/04/08 10:45:34;;;;;;;0.40;0.40;;;11.30;72.70;;;;;;5112798;28;20054;-39
2021/04/08 10:48:01;;;;;;;0.52;0.52;;;11.30;72.70;;;;;;5112381;28;20415;-38
2021/04/08 10:50:27;;;;;;;0.63;0.50;;;11.30;72.60;;;;;;5112733;28;20043;-39
2021/04/08 10:52:53;;;;;;;1.50;0.60;;;11.30;72.60;;;;;;5112469;28;20119;-41
2021/04/08 10:55:23;;;;;;;0.60;0.50;;;11.30;72.60;;;;;;5112617;28;20484;-37
2021/04/08 10:57:49;;;;;;;1.05;0.50;;;11.30;72.60;;;;;;5112418;28;20052;-37
2021/04/08 11:00:17;;;;;;;0.55;0.55;;;11.30;72.60;;;;;;5103697;28;20538;-37
2021/04/08 11:02:44;;;;;;;0.40;0.40;;;11.40;72.60;;;;;;5100256;28;20070;-37
2021/04/08 11:05:17;;;;;;;1.23;0.75;;;11.30;72.50;;;;;;5091897;28;20087;-42
2021/04/08 11:07:46;;;;;;;0.80;0.60;;;11.40;72.50;;;;;;5092202;28;20083;-38
2021/04/08 11:10:13;;;;;;;1.50;0.60;;;11.30;72.50;;;;;;5096715;28;20048;-37
2021/04/08 11:12:39;;;;;;;1.70;0.70;;;11.30;72.50;;;;;;5112534;28;20044;-40
2021/04/08 11:15:07;;;;;;;0.43;0.43;;;11.40;72.50;;;;;;5111925;28;20073;-44
2021/04/08 11:17:35;;;;;;;0.50;0.50;;;11.30;72.40;;;;;;5112257;28;20055;-38
2021/04/08 11:20:02;;;;;;;0.70;0.52;;;11.40;72.50;;;;;;5112407;28;20055;-38
2021/04/08 11:22:32;;;;;;;0.60;0.57;;;11.40;72.50;;;;;;5112396;28;20070;-37
2021/04/08 11:24:58;;;;;;;0.47;0.47;;;11.40;72.50;;;;;;5112349;28;20407;-38
2021/04/08 11:27:36;;;;;;;0.80;0.73;;;11.40;72.50;;;;;;5112623;28;20487;-41
2021/04/08 11:30:05;;;;;;;0.47;0.47;;;11.40;72.40;;;;;;5115541;28;20384;-41
2021/04/08 11:32:30;;;;;;;0.50;0.50;;;11.40;72.40;;;;;;5116224;28;20047;-38
2021/04/08 11:34:58;;;;;;;1.08;0.60;;;11.40;72.40;;;;;;5115980;28;20048;-39
2021/04/08 11:37:36;;;;;;;0.75;0.73;;;11.40;72.40;;;;;;5115357;28;20098;-37
2021/04/08 11:40:04;;;;;;;0.70;0.60;;;11.40;72.40;;;;;;5115556;28;20055;-37
2021/04/08 11:42:39;;;;;;;1.05;0.68;;;11.40;72.40;;;;;;5115681;28;20487;-37
2021/04/08 11:45:28;;;;;;;0.95;0.80;;;11.50;72.40;;;;;;5115324;27;20051;-40
2021/04/08 11:48:05;;;;;;;0.73;0.52;;;11.50;72.30;;;;;;5115904;28;20070;-38
2021/04/08 11:50:50;;;;;;;1.13;0.77;;;11.40;72.30;;;;;;5115957;28;20046;-39
2021/04/08 11:53:18;;;;;;;0.80;0.68;;;11.40;73.00;;;;;;5113455;28;20047;-38
2021/04/08 11:55:49;;;;;;;0.85;0.65;;;11.40;72.30;;;;;;5114896;28;20051;-39
2021/04/08 11:58:27;;;;;;;0.60;0.50;;;11.40;72.30;;;;;;5114693;28;20050;-40
2021/04/08 12:01:05;;;;;;;0.90;0.73;;;11.40;72.20;;;;;;5112412;28;20452;-41
2021/04/08 12:03:42;;;;;;;1.52;0.70;;;11.40;72.20;;;;;;5112559;28;20410;-39
2021/04/08 12:06:19;;;;;;;0.90;0.80;;;11.40;72.20;;;;;;5114656;28;20046;-39
2021/04/08 12:08:51;;;;;;;1.20;0.85;;;11.50;72.20;;;;;;5115382;28;20050;-38
2021/04/08 12:11:19;;;;;;;0.70;0.70;;;11.50;72.20;;;;;;5114744;28;20051;-43
2021/04/08 12:14:02;;;;;;;0.90;0.80;;;11.40;72.20;;;;;;5115277;27;20047;-39
2021/04/08 12:16:28;;;;;;;0.75;0.75;;;11.50;72.20;;;;;;5114997;28;20043;-39
2021/04/08 12:18:55;;;;;;;12.82;6.20;;;11.50;72.20;;;;;;5115141;28;20120;-42
2021/04/08 12:21:22;;;;;;;9.40;6.00;;;11.30;69.00;;;;;;5114807;28;20749;-42
2021/04/08 12:23:48;;;;;;;10.57;5.85;;;10.80;66.30;;;;;;5115168;28;20062;-43
2021/04/08 12:26:14;;;;;;;10.20;5.60;;;10.30;65.50;;;;;;5114717;28;20138;-43
2021/04/08 12:28:41;;;;;;;10.70;5.43;;;10.00;66.40;;;;;;5115119;28;20052;-40
2021/04/08 12:31:09;;;;;;;8.68;5.90;;;10.00;66.60;;;;;;5114277;28;20050;-39
2021/04/08 12:33:40;;;;;;;10.10;7.03;;;10.10;66.70;;;;;;5114943;28;20043;-39
2021/04/08 12:36:11;;;;;;;10.05;6.30;;;10.10;65.60;;;;;;5114251;28;20109;-39
2021/04/08 12:38:38;;;;;;;10.63;7.00;;;10.00;65.90;;;;;;5114592;28;20070;-38
2021/04/08 12:41:05;;;;;;;8.80;6.15;;;10.10;66.20;;;;;;5114720;28;20048;-41
2021/04/08 12:43:31;;;;;;;9.23;6.63;;;10.20;66.30;;;;;;5114492;28;20053;-39
2021/04/08 12:45:58;;;;;;;7.65;6.03;;;10.20;66.40;;;;;;5114599;28;20054;-41
2021/04/08 12:48:24;;;;;;;8.15;6.13;;;10.30;66.60;;;;;;5114161;28;20051;-39
2021/04/08 12:50:51;;;;;;;7.97;6.72;;;10.40;66.80;;;;;;5114649;28;20139;-37
2021/04/08 12:53:20;;;;;;;9.32;5.97;;;10.40;67.00;;;;;;5112480;28;20055;-38
2021/04/08 12:55:47;;;;;;;7.20;6.00;;;10.40;67.10;;;;;;5114469;28;20084;-40
2021/04/08 12:58:13;;;;;;;7.93;6.30;;;10.50;67.30;;;;;;5114164;28;20564;-37